sensor_id;sensor_type;location;lat;lon;timestamp;P1;durP1;ratioP1;P2;durP2;ratioP2
18136;SDS011;9194;42.632;23.298;2022-10-16T00:04:54;6.03;;;4.47;;
18136;SDS011;9194;42.632;23.298;2022-10-16T00:09:55;7.60;;;4.57;;
18136;SDS011;9194;42.632;23.298;2022-10-16T00:14:56;6.10;;;4.60;;
18136;SDS011;9194;42.632;23.298;2022-10-16T00:19:58;5.77;;;4.80;;
18136;SDS011;9194;42.632;23.298;2022-10-16T00:25:18;6.27;;;4.33;;
18136;SDS011;9194;42.632;23.298;2022-10-16T00:30:19;8.27;;;4.87;;
18136;SDS011;9194;42.632;23.298;2022-10-16T00:35:22;8.90;;;5.60;;
18136;SDS011;9194;42.632;23.298;2022-10-16T00:40:25;8.73;;;5.63;;
18136;SDS011;9194;42.632;23.298;2022-10-16T00:45:28;7.73;;;5.23;;
18136;SDS011;9194;42.632;23.298;2022-10-16T00:50:30;9.00;;;4.97;;
18136;SDS011;9194;42.632;23.298;2022-10-16T00:55:33;10.37;;;5.50;;
18136;SDS011;9194;42.632;23.298;2022-10-16T01:00:35;10.60;;;5.50;;
18136;SDS011;9194;42.632;23.298;2022-10-16T01:05:43;7.77;;;4.80;;
18136;SDS011;9194;42.632;23.298;2022-10-16T01:10:54;7.43;;;4.40;;
18136;SDS011;9194;42.632;23.298;2022-10-16T01:21:10;5.67;;;4.60;;
18136;SDS011;9194;42.632;23.298;2022-10-16T01:31:29;8.17;;;4.57;;
18136;SDS011;9194;42.632;23.298;2022-10-16T01:36:37;6.43;;;4.47;;
18136;SDS011;9194;42.632;23.298;2022-10-16T01:41:46;8.27;;;4.63;;
18136;SDS011;9194;42.632;23.298;2022-10-16T01:46:52;6.23;;;4.23;;
18136;SDS011;9194;42.632;23.298;2022-10-16T01:51:56;10.47;;;4.90;;
18136;SDS011;9194;42.632;23.298;2022-10-16T01:57:00;7.97;;;5.20;;
18136;SDS011;9194;42.632;23.298;2022-10-16T02:02:06;8.90;;;5.13;;
18136;SDS011;9194;42.632;23.298;2022-10-16T02:07:10;4.90;;;4.23;;
18136;SDS011;9194;42.632;23.298;2022-10-16T02:12:18;8.73;;;5.40;;
18136;SDS011;9194;42.632;23.298;2022-10-16T02:17:26;7.47;;;4.80;;
18136;SDS011;9194;42.632;23.298;2022-10-16T02:22:30;8.80;;;5.47;;
18136;SDS011;9194;42.632;23.298;2022-10-16T02:32:37;11.47;;;6.23;;
18136;SDS011;9194;42.632;23.298;2022-10-16T02:37:42;9.77;;;5.63;;
18136;SDS011;9194;42.632;23.298;2022-10-16T02:42:49;11.10;;;6.17;;
18136;SDS011;9194;42.632;23.298;2022-10-16T02:47:52;12.87;;;7.53;;
18136;SDS011;9194;42.632;23.298;2022-10-16T02:52:53;11.00;;;7.50;;
18136;SDS011;9194;42.632;23.298;2022-10-16T02:57:55;15.77;;;8.57;;
18136;SDS011;9194;42.632;23.298;2022-10-16T03:02:56;17.60;;;9.10;;
18136;SDS011;9194;42.632;23.298;2022-10-16T03:07:57;15.47;;;9.57;;
18136;SDS011;9194;42.632;23.298;2022-10-16T03:13:01;14.77;;;8.43;;
18136;SDS011;9194;42.632;23.298;2022-10-16T03:18:02;16.47;;;8.90;;
18136;SDS011;9194;42.632;23.298;2022-10-16T03:23:04;19.60;;;7.87;;
18136;SDS011;9194;42.632;23.298;2022-10-16T03:28:05;14.07;;;8.70;;
18136;SDS011;9194;42.632;23.298;2022-10-16T03:33:07;16.70;;;8.40;;
18136;SDS011;9194;42.632;23.298;2022-10-16T03:38:08;16.80;;;10.50;;
18136;SDS011;9194;42.632;23.298;2022-10-16T03:43:09;17.83;;;10.47;;
18136;SDS011;9194;42.632;23.298;2022-10-16T03:48:11;19.97;;;10.83;;
18136;SDS011;9194;42.632;23.298;2022-10-16T03:53:14;28.37;;;12.70;;
18136;SDS011;9194;42.632;23.298;2022-10-16T03:58:15;30.67;;;13.70;;
18136;SDS011;9194;42.632;23.298;2022-10-16T04:03:17;32.17;;;14.43;;
18136;SDS011;9194;42.632;23.298;2022-10-16T04:08:23;23.60;;;13.10;;
18136;SDS011;9194;42.632;23.298;2022-10-16T04:13:24;26.40;;;12.97;;
18136;SDS011;9194;42.632;23.298;2022-10-16T04:18:25;19.27;;;12.40;;
18136;SDS011;9194;42.632;23.298;2022-10-16T04:23:28;20.37;;;9.60;;
18136;SDS011;9194;42.632;23.298;2022-10-16T04:28:29;14.07;;;8.50;;
18136;SDS011;9194;42.632;23.298;2022-10-16T04:33:30;11.60;;;8.27;;
18136;SDS011;9194;42.632;23.298;2022-10-16T04:38:31;14.47;;;8.13;;
18136;SDS011;9194;42.632;23.298;2022-10-16T04:43:33;12.77;;;7.57;;
18136;SDS011;9194;42.632;23.298;2022-10-16T04:48:34;14.40;;;8.37;;
18136;SDS011;9194;42.632;23.298;2022-10-16T04:53:36;13.03;;;8.37;;
18136;SDS011;9194;42.632;23.298;2022-10-16T04:58:38;9.90;;;7.37;;
18136;SDS011;9194;42.632;23.298;2022-10-16T05:03:39;12.40;;;8.33;;
18136;SDS011;9194;42.632;23.298;2022-10-16T05:08:41;11.53;;;7.80;;
18136;SDS011;9194;42.632;23.298;2022-10-16T05:13:42;11.17;;;8.20;;
18136;SDS011;9194;42.632;23.298;2022-10-16T05:18:43;11.93;;;8.20;;
18136;SDS011;9194;42.632;23.298;2022-10-16T05:23:44;9.97;;;7.10;;
18136;SDS011;9194;42.632;23.298;2022-10-16T05:28:46;13.03;;;7.43;;
18136;SDS011;9194;42.632;23.298;2022-10-16T05:33:47;16.97;;;8.53;;
18136;SDS011;9194;42.632;23.298;2022-10-16T05:38:50;14.50;;;8.43;;
18136;SDS011;9194;42.632;23.298;2022-10-16T05:43:51;12.97;;;8.00;;
18136;SDS011;9194;42.632;23.298;2022-10-16T05:48:54;18.20;;;12.20;;
18136;SDS011;9194;42.632;23.298;2022-10-16T05:53:55;16.63;;;10.33;;
18136;SDS011;9194;42.632;23.298;2022-10-16T05:58:56;20.27;;;11.80;;
18136;SDS011;9194;42.632;23.298;2022-10-16T06:03:58;28.00;;;12.40;;
18136;SDS011;9194;42.632;23.298;2022-10-16T06:08:59;18.23;;;10.97;;
18136;SDS011;9194;42.632;23.298;2022-10-16T06:14:01;27.63;;;15.13;;
18136;SDS011;9194;42.632;23.298;2022-10-16T06:19:07;27.97;;;14.20;;
18136;SDS011;9194;42.632;23.298;2022-10-16T06:24:09;27.87;;;14.80;;
18136;SDS011;9194;42.632;23.298;2022-10-16T06:29:10;25.50;;;13.13;;
18136;SDS011;9194;42.632;23.298;2022-10-16T06:34:11;18.20;;;9.73;;
18136;SDS011;9194;42.632;23.298;2022-10-16T06:39:13;17.43;;;10.43;;
18136;SDS011;9194;42.632;23.298;2022-10-16T06:44:14;18.77;;;10.73;;
18136;SDS011;9194;42.632;23.298;2022-10-16T06:49:15;20.67;;;10.43;;
18136;SDS011;9194;42.632;23.298;2022-10-16T06:54:22;17.23;;;9.87;;
18136;SDS011;9194;42.632;23.298;2022-10-16T06:59:23;20.50;;;11.27;;
18136;SDS011;9194;42.632;23.298;2022-10-16T07:04:24;21.30;;;11.30;;
18136;SDS011;9194;42.632;23.298;2022-10-16T07:09:26;21.90;;;11.77;;
18136;SDS011;9194;42.632;23.298;2022-10-16T07:14:27;20.80;;;11.40;;
18136;SDS011;9194;42.632;23.298;2022-10-16T07:19:28;21.23;;;11.20;;
18136;SDS011;9194;42.632;23.298;2022-10-16T07:24:29;13.97;;;8.07;;
18136;SDS011;9194;42.632;23.298;2022-10-16T07:29:31;14.80;;;8.37;;
18136;SDS011;9194;42.632;23.298;2022-10-16T07:34:33;14.17;;;8.03;;
18136;SDS011;9194;42.632;23.298;2022-10-16T07:39:34;14.67;;;7.80;;
18136;SDS011;9194;42.632;23.298;2022-10-16T07:44:36;13.27;;;7.80;;
18136;SDS011;9194;42.632;23.298;2022-10-16T07:49:37;12.40;;;7.83;;
18136;SDS011;9194;42.632;23.298;2022-10-16T07:54:38;10.53;;;6.97;;
18136;SDS011;9194;42.632;23.298;2022-10-16T07:59:39;10.60;;;6.50;;
18136;SDS011;9194;42.632;23.298;2022-10-16T08:04:41;12.23;;;6.83;;
18136;SDS011;9194;42.632;23.298;2022-10-16T08:09:42;13.63;;;6.60;;
18136;SDS011;9194;42.632;23.298;2022-10-16T08:14:43;13.27;;;6.60;;
18136;SDS011;9194;42.632;23.298;2022-10-16T08:19:45;17.77;;;7.30;;
18136;SDS011;9194;42.632;23.298;2022-10-16T08:24:49;19.67;;;7.97;;
18136;SDS011;9194;42.632;23.298;2022-10-16T08:29:50;12.00;;;7.40;;
18136;SDS011;9194;42.632;23.298;2022-10-16T08:34:51;17.10;;;7.77;;
18136;SDS011;9194;42.632;23.298;2022-10-16T08:39:53;15.10;;;7.53;;
18136;SDS011;9194;42.632;23.298;2022-10-16T08:50:23;12.17;;;6.03;;
18136;SDS011;9194;42.632;23.298;2022-10-16T08:55:41;12.33;;;5.00;;
18136;SDS011;9194;42.632;23.298;2022-10-16T09:00:46;7.97;;;4.30;;
18136;SDS011;9194;42.632;23.298;2022-10-16T09:11:59;6.17;;;3.80;;
18136;SDS011;9194;42.632;23.298;2022-10-16T09:22:27;8.83;;;3.70;;
18136;SDS011;9194;42.632;23.298;2022-10-16T09:27:30;6.90;;;3.63;;
18136;SDS011;9194;42.632;23.298;2022-10-16T09:32:31;8.57;;;3.97;;
18136;SDS011;9194;42.632;23.298;2022-10-16T09:37:34;14.55;;;4.05;;
18136;SDS011;9194;42.632;23.298;2022-10-16T09:42:36;5.75;;;3.05;;
18136;SDS011;9194;42.632;23.298;2022-10-16T09:47:39;4.18;;;3.15;;
18136;SDS011;9194;42.632;23.298;2022-10-16T09:52:43;5.72;;;3.90;;
18136;SDS011;9194;42.632;23.298;2022-10-16T09:57:49;6.13;;;3.33;;
18136;SDS011;9194;42.632;23.298;2022-10-16T10:02:56;4.57;;;3.20;;
18136;SDS011;9194;42.632;23.298;2022-10-16T10:08:02;10.80;;;3.47;;
18136;SDS011;9194;42.632;23.298;2022-10-16T10:13:17;8.30;;;3.83;;
18136;SDS011;9194;42.632;23.298;2022-10-16T10:18:21;6.45;;;3.15;;
18136;SDS011;9194;42.632;23.298;2022-10-16T10:23:25;5.15;;;2.90;;
18136;SDS011;9194;42.632;23.298;2022-10-16T10:39:23;5.22;;;3.15;;
18136;SDS011;9194;42.632;23.298;2022-10-16T11:12:00;3.22;;;2.92;;
18136;SDS011;9194;42.632;23.298;2022-10-16T11:17:18;3.65;;;3.15;;
18136;SDS011;9194;42.632;23.298;2022-10-16T11:22:27;5.88;;;3.60;;
18136;SDS011;9194;42.632;23.298;2022-10-16T11:27:59;5.65;;;3.15;;
18136;SDS011;9194;42.632;23.298;2022-10-16T11:43:52;2.78;;;2.58;;
18136;SDS011;9194;42.632;23.298;2022-10-16T11:49:12;8.18;;;2.70;;
18136;SDS011;9194;42.632;23.298;2022-10-16T12:04:49;3.50;;;2.42;;
18136;SDS011;9194;42.632;23.298;2022-10-16T12:09:57;5.05;;;2.67;;
18136;SDS011;9194;42.632;23.298;2022-10-16T12:25:36;2.15;;;1.95;;
18136;SDS011;9194;42.632;23.298;2022-10-16T12:30:53;2.78;;;2.50;;
18136;SDS011;9194;42.632;23.298;2022-10-16T12:35:58;2.85;;;2.05;;
18136;SDS011;9194;42.632;23.298;2022-10-16T12:41:02;2.72;;;2.53;;
18136;SDS011;9194;42.632;23.298;2022-10-16T12:56:50;8.05;;;3.20;;
18136;SDS011;9194;42.632;23.298;2022-10-16T13:07:36;3.67;;;2.33;;
18136;SDS011;9194;42.632;23.298;2022-10-16T13:18:01;3.95;;;2.10;;
18136;SDS011;9194;42.632;23.298;2022-10-16T13:28:40;3.88;;;2.08;;
18136;SDS011;9194;42.632;23.298;2022-10-16T13:33:42;3.50;;;2.25;;
18136;SDS011;9194;42.632;23.298;2022-10-16T13:38:48;5.57;;;3.17;;
18136;SDS011;9194;42.632;23.298;2022-10-16T13:44:01;7.00;;;2.37;;
18136;SDS011;9194;42.632;23.298;2022-10-16T13:49:04;3.92;;;2.60;;
18136;SDS011;9194;42.632;23.298;2022-10-16T13:54:12;2.67;;;2.23;;
18136;SDS011;9194;42.632;23.298;2022-10-16T14:04:37;3.90;;;2.40;;
18136;SDS011;9194;42.632;23.298;2022-10-16T14:09:40;8.23;;;2.63;;
18136;SDS011;9194;42.632;23.298;2022-10-16T14:14:42;8.43;;;2.60;;
18136;SDS011;9194;42.632;23.298;2022-10-16T14:19:46;5.13;;;2.63;;
18136;SDS011;9194;42.632;23.298;2022-10-16T14:24:49;10.73;;;2.60;;
18136;SDS011;9194;42.632;23.298;2022-10-16T14:29:50;8.20;;;3.30;;
18136;SDS011;9194;42.632;23.298;2022-10-16T14:40:36;10.03;;;2.90;;
18136;SDS011;9194;42.632;23.298;2022-10-16T14:45:38;5.87;;;2.60;;
18136;SDS011;9194;42.632;23.298;2022-10-16T14:50:42;7.80;;;2.60;;
18136;SDS011;9194;42.632;23.298;2022-10-16T14:55:43;5.93;;;2.73;;
18136;SDS011;9194;42.632;23.298;2022-10-16T15:00:45;3.27;;;2.80;;
18136;SDS011;9194;42.632;23.298;2022-10-16T15:05:47;2.73;;;2.53;;
18136;SDS011;9194;42.632;23.298;2022-10-16T15:10:49;4.77;;;2.53;;
18136;SDS011;9194;42.632;23.298;2022-10-16T15:15:51;2.60;;;2.40;;
18136;SDS011;9194;42.632;23.298;2022-10-16T15:20:53;3.97;;;2.93;;
18136;SDS011;9194;42.632;23.298;2022-10-16T15:25:55;5.07;;;2.73;;
18136;SDS011;9194;42.632;23.298;2022-10-16T15:30:57;8.40;;;2.87;;
18136;SDS011;9194;42.632;23.298;2022-10-16T15:35:58;6.97;;;2.73;;
18136;SDS011;9194;42.632;23.298;2022-10-16T15:41:00;6.97;;;3.20;;
18136;SDS011;9194;42.632;23.298;2022-10-16T15:46:03;10.60;;;3.03;;
18136;SDS011;9194;42.632;23.298;2022-10-16T15:51:07;4.40;;;3.10;;
18136;SDS011;9194;42.632;23.298;2022-10-16T15:56:09;5.13;;;3.00;;
18136;SDS011;9194;42.632;23.298;2022-10-16T16:06:35;5.40;;;3.20;;
18136;SDS011;9194;42.632;23.298;2022-10-16T16:11:38;7.43;;;3.00;;
18136;SDS011;9194;42.632;23.298;2022-10-16T16:16:39;4.67;;;2.93;;
18136;SDS011;9194;42.632;23.298;2022-10-16T16:21:42;10.73;;;3.33;;
18136;SDS011;9194;42.632;23.298;2022-10-16T16:26:43;4.23;;;2.90;;
18136;SDS011;9194;42.632;23.298;2022-10-16T16:31:45;5.03;;;2.80;;
18136;SDS011;9194;42.632;23.298;2022-10-16T16:36:48;9.17;;;2.73;;
18136;SDS011;9194;42.632;23.298;2022-10-16T16:41:49;3.80;;;2.73;;
18136;SDS011;9194;42.632;23.298;2022-10-16T16:46:51;3.87;;;3.03;;
18136;SDS011;9194;42.632;23.298;2022-10-16T16:51:52;9.90;;;2.97;;
18136;SDS011;9194;42.632;23.298;2022-10-16T16:56:54;6.63;;;2.90;;
18136;SDS011;9194;42.632;23.298;2022-10-16T17:01:57;4.33;;;3.10;;
18136;SDS011;9194;42.632;23.298;2022-10-16T17:06:58;7.27;;;3.03;;
18136;SDS011;9194;42.632;23.298;2022-10-16T17:11:59;2.93;;;2.53;;
18136;SDS011;9194;42.632;23.298;2022-10-16T17:17:01;5.17;;;3.20;;
18136;SDS011;9194;42.632;23.298;2022-10-16T17:22:02;8.03;;;3.47;;
18136;SDS011;9194;42.632;23.298;2022-10-16T17:27:03;4.60;;;2.57;;
18136;SDS011;9194;42.632;23.298;2022-10-16T17:32:05;9.03;;;3.03;;
18136;SDS011;9194;42.632;23.298;2022-10-16T17:37:06;5.80;;;2.80;;
18136;SDS011;9194;42.632;23.298;2022-10-16T17:42:07;4.10;;;3.13;;
18136;SDS011;9194;42.632;23.298;2022-10-16T17:47:09;3.93;;;2.73;;
18136;SDS011;9194;42.632;23.298;2022-10-16T17:52:11;4.30;;;2.70;;
18136;SDS011;9194;42.632;23.298;2022-10-16T17:57:13;2.80;;;2.57;;
18136;SDS011;9194;42.632;23.298;2022-10-16T18:02:15;3.73;;;2.87;;
18136;SDS011;9194;42.632;23.298;2022-10-16T18:07:18;3.27;;;2.90;;
18136;SDS011;9194;42.632;23.298;2022-10-16T18:12:19;3.87;;;3.30;;
18136;SDS011;9194;42.632;23.298;2022-10-16T18:17:20;6.27;;;3.37;;
18136;SDS011;9194;42.632;23.298;2022-10-16T18:22:21;4.27;;;2.90;;
18136;SDS011;9194;42.632;23.298;2022-10-16T18:27:23;8.83;;;3.20;;
18136;SDS011;9194;42.632;23.298;2022-10-16T18:32:25;4.23;;;3.40;;
18136;SDS011;9194;42.632;23.298;2022-10-16T18:37:27;5.40;;;3.10;;
18136;SDS011;9194;42.632;23.298;2022-10-16T18:42:28;3.80;;;3.30;;
18136;SDS011;9194;42.632;23.298;2022-10-16T18:47:30;11.07;;;3.37;;
18136;SDS011;9194;42.632;23.298;2022-10-16T18:52:32;7.63;;;4.23;;
18136;SDS011;9194;42.632;23.298;2022-10-16T18:57:33;6.97;;;3.83;;
18136;SDS011;9194;42.632;23.298;2022-10-16T19:02:34;7.90;;;3.23;;
18136;SDS011;9194;42.632;23.298;2022-10-16T19:07:36;8.03;;;4.13;;
18136;SDS011;9194;42.632;23.298;2022-10-16T19:12:37;10.87;;;3.63;;
18136;SDS011;9194;42.632;23.298;2022-10-16T19:17:38;4.63;;;3.30;;
18136;SDS011;9194;42.632;23.298;2022-10-16T19:22:39;5.13;;;3.33;;
18136;SDS011;9194;42.632;23.298;2022-10-16T19:27:54;8.77;;;3.80;;
18136;SDS011;9194;42.632;23.298;2022-10-16T19:32:55;4.27;;;3.33;;
18136;SDS011;9194;42.632;23.298;2022-10-16T19:37:56;4.10;;;3.70;;
18136;SDS011;9194;42.632;23.298;2022-10-16T19:42:58;5.13;;;3.17;;
18136;SDS011;9194;42.632;23.298;2022-10-16T19:47:59;4.27;;;3.10;;
18136;SDS011;9194;42.632;23.298;2022-10-16T19:53:01;3.90;;;2.93;;
18136;SDS011;9194;42.632;23.298;2022-10-16T19:58:02;3.67;;;3.17;;
18136;SDS011;9194;42.632;23.298;2022-10-16T20:03:03;5.17;;;3.40;;
18136;SDS011;9194;42.632;23.298;2022-10-16T20:08:05;3.77;;;3.40;;
18136;SDS011;9194;42.632;23.298;2022-10-16T20:13:07;12.93;;;3.73;;
18136;SDS011;9194;42.632;23.298;2022-10-16T20:18:08;5.90;;;3.23;;
18136;SDS011;9194;42.632;23.298;2022-10-16T20:23:09;6.60;;;3.47;;
18136;SDS011;9194;42.632;23.298;2022-10-16T20:28:13;4.93;;;3.50;;
18136;SDS011;9194;42.632;23.298;2022-10-16T20:33:16;5.67;;;3.50;;
18136;SDS011;9194;42.632;23.298;2022-10-16T20:38:18;13.73;;;3.87;;
18136;SDS011;9194;42.632;23.298;2022-10-16T20:43:19;5.50;;;3.50;;
18136;SDS011;9194;42.632;23.298;2022-10-16T20:48:20;5.80;;;3.87;;
18136;SDS011;9194;42.632;23.298;2022-10-16T20:53:22;7.90;;;4.00;;
18136;SDS011;9194;42.632;23.298;2022-10-16T20:58:23;6.63;;;3.53;;
18136;SDS011;9194;42.632;23.298;2022-10-16T21:03:25;8.40;;;4.00;;
18136;SDS011;9194;42.632;23.298;2022-10-16T21:08:26;6.10;;;3.93;;
18136;SDS011;9194;42.632;23.298;2022-10-16T21:13:27;10.20;;;4.23;;
18136;SDS011;9194;42.632;23.298;2022-10-16T21:18:28;8.40;;;4.17;;
18136;SDS011;9194;42.632;23.298;2022-10-16T21:23:30;6.83;;;4.53;;
18136;SDS011;9194;42.632;23.298;2022-10-16T21:28:32;12.13;;;3.90;;
18136;SDS011;9194;42.632;23.298;2022-10-16T21:33:33;5.20;;;3.97;;
18136;SDS011;9194;42.632;23.298;2022-10-16T21:38:35;5.60;;;4.13;;
18136;SDS011;9194;42.632;23.298;2022-10-16T21:43:36;8.57;;;4.60;;
18136;SDS011;9194;42.632;23.298;2022-10-16T21:48:37;7.67;;;4.53;;
18136;SDS011;9194;42.632;23.298;2022-10-16T21:53:39;5.13;;;4.30;;
18136;SDS011;9194;42.632;23.298;2022-10-16T21:58:40;9.87;;;4.50;;
18136;SDS011;9194;42.632;23.298;2022-10-16T22:03:43;6.50;;;4.47;;
18136;SDS011;9194;42.632;23.298;2022-10-16T22:08:46;7.67;;;4.83;;
18136;SDS011;9194;42.632;23.298;2022-10-16T22:13:49;6.77;;;4.90;;
18136;SDS011;9194;42.632;23.298;2022-10-16T22:18:55;8.87;;;4.90;;
18136;SDS011;9194;42.632;23.298;2022-10-16T22:23:58;9.40;;;4.67;;
18136;SDS011;9194;42.632;23.298;2022-10-16T22:29:00;6.30;;;4.43;;
18136;SDS011;9194;42.632;23.298;2022-10-16T22:34:02;7.83;;;4.63;;
18136;SDS011;9194;42.632;23.298;2022-10-16T22:39:04;5.90;;;4.47;;
18136;SDS011;9194;42.632;23.298;2022-10-16T22:44:09;6.93;;;4.47;;
18136;SDS011;9194;42.632;23.298;2022-10-16T22:49:11;5.13;;;4.63;;
18136;SDS011;9194;42.632;23.298;2022-10-16T22:54:13;8.70;;;5.07;;
18136;SDS011;9194;42.632;23.298;2022-10-16T22:59:14;7.90;;;4.80;;
18136;SDS011;9194;42.632;23.298;2022-10-16T23:04:19;14.93;;;5.17;;
18136;SDS011;9194;42.632;23.298;2022-10-16T23:09:20;9.07;;;4.67;;
18136;SDS011;9194;42.632;23.298;2022-10-16T23:14:22;7.53;;;5.03;;
18136;SDS011;9194;42.632;23.298;2022-10-16T23:19:23;10.27;;;4.90;;
18136;SDS011;9194;42.632;23.298;2022-10-16T23:24:24;6.63;;;4.73;;
18136;SDS011;9194;42.632;23.298;2022-10-16T23:29:25;7.47;;;5.17;;
18136;SDS011;9194;42.632;23.298;2022-10-16T23:34:27;6.60;;;5.10;;
18136;SDS011;9194;42.632;23.298;2022-10-16T23:39:28;8.43;;;5.03;;
18136;SDS011;9194;42.632;23.298;2022-10-16T23:44:29;8.33;;;4.90;;
18136;SDS011;9194;42.632;23.298;2022-10-16T23:49:31;6.70;;;4.77;;
18136;SDS011;9194;42.632;23.298;2022-10-16T23:54:32;8.97;;;4.57;;
18136;SDS011;9194;42.632;23.298;2022-10-16T23:59:33;7.63;;;5.17;;
